sensor_id;sensor_type;location;lat;lon;timestamp;P1;durP1;ratioP1;P2;durP2;ratioP2
6485;SDS011;3276;48.490;9.222;2023-08-07T00:01:44;3.80;;;1.37;;
6485;SDS011;3276;48.490;9.222;2023-08-07T00:04:09;3.00;;;1.40;;
6485;SDS011;3276;48.490;9.222;2023-08-07T00:06:35;5.10;;;1.23;;
6485;SDS011;3276;48.490;9.222;2023-08-07T00:09:00;2.83;;;1.30;;
6485;SDS011;3276;48.490;9.222;2023-08-07T00:11:26;2.13;;;1.00;;
6485;SDS011;3276;48.490;9.222;2023-08-07T00:13:53;2.07;;;0.97;;
6485;SDS011;3276;48.490;9.222;2023-08-07T00:16:19;2.83;;;1.13;;
6485;SDS011;3276;48.490;9.222;2023-08-07T00:18:44;3.43;;;1.37;;
6485;SDS011;3276;48.490;9.222;2023-08-07T00:21:10;2.13;;;0.90;;
6485;SDS011;3276;48.490;9.222;2023-08-07T00:23:36;2.80;;;1.37;;
6485;SDS011;3276;48.490;9.222;2023-08-07T00:26:01;2.20;;;1.07;;
6485;SDS011;3276;48.490;9.222;2023-08-07T00:28:27;3.50;;;1.80;;
6485;SDS011;3276;48.490;9.222;2023-08-07T00:30:54;2.23;;;1.43;;
6485;SDS011;3276;48.490;9.222;2023-08-07T00:33:20;2.40;;;0.97;;
6485;SDS011;3276;48.490;9.222;2023-08-07T00:35:45;2.20;;;1.40;;
6485;SDS011;3276;48.490;9.222;2023-08-07T00:38:11;2.40;;;1.10;;
6485;SDS011;3276;48.490;9.222;2023-08-07T00:40:37;2.13;;;1.20;;
6485;SDS011;3276;48.490;9.222;2023-08-07T00:43:03;2.23;;;1.43;;
6485;SDS011;3276;48.490;9.222;2023-08-07T00:45:29;2.20;;;0.90;;
6485;SDS011;3276;48.490;9.222;2023-08-07T00:47:57;3.50;;;1.00;;
6485;SDS011;3276;48.490;9.222;2023-08-07T00:50:22;2.33;;;1.23;;
6485;SDS011;3276;48.490;9.222;2023-08-07T00:52:48;25.57;;;1.70;;
6485;SDS011;3276;48.490;9.222;2023-08-07T00:55:14;3.60;;;1.50;;
6485;SDS011;3276;48.490;9.222;2023-08-07T00:57:39;3.73;;;1.60;;
6485;SDS011;3276;48.490;9.222;2023-08-07T01:00:05;9.00;;;1.53;;
6485;SDS011;3276;48.490;9.222;2023-08-07T01:02:32;2.20;;;1.20;;
6485;SDS011;3276;48.490;9.222;2023-08-07T01:04:58;2.47;;;1.00;;
6485;SDS011;3276;48.490;9.222;2023-08-07T01:07:24;2.30;;;1.00;;
6485;SDS011;3276;48.490;9.222;2023-08-07T01:09:50;2.00;;;1.33;;
6485;SDS011;3276;48.490;9.222;2023-08-07T01:12:16;2.53;;;1.43;;
6485;SDS011;3276;48.490;9.222;2023-08-07T01:14:49;3.43;;;1.27;;
6485;SDS011;3276;48.490;9.222;2023-08-07T01:17:45;2.30;;;1.00;;
6485;SDS011;3276;48.490;9.222;2023-08-07T01:20:11;2.50;;;1.60;;
6485;SDS011;3276;48.490;9.222;2023-08-07T01:22:37;2.13;;;1.00;;
6485;SDS011;3276;48.490;9.222;2023-08-07T01:25:03;3.93;;;1.17;;
6485;SDS011;3276;48.490;9.222;2023-08-07T01:35:33;2.00;;;1.00;;
6485;SDS011;3276;48.490;9.222;2023-08-07T01:38:02;3.30;;;1.37;;
6485;SDS011;3276;48.490;9.222;2023-08-07T01:40:29;3.00;;;1.47;;
6485;SDS011;3276;48.490;9.222;2023-08-07T01:42:55;2.90;;;1.83;;
6485;SDS011;3276;48.490;9.222;2023-08-07T01:45:22;3.07;;;1.40;;
6485;SDS011;3276;48.490;9.222;2023-08-07T01:47:52;2.23;;;1.10;;
6485;SDS011;3276;48.490;9.222;2023-08-07T01:50:21;4.37;;;1.53;;
6485;SDS011;3276;48.490;9.222;2023-08-07T01:52:47;3.93;;;1.40;;
6485;SDS011;3276;48.490;9.222;2023-08-07T01:55:14;2.40;;;1.20;;
6485;SDS011;3276;48.490;9.222;2023-08-07T01:57:40;2.77;;;1.70;;
6485;SDS011;3276;48.490;9.222;2023-08-07T02:00:06;2.70;;;1.30;;
6485;SDS011;3276;48.490;9.222;2023-08-07T02:02:33;8.50;;;2.23;;
6485;SDS011;3276;48.490;9.222;2023-08-07T02:04:59;2.53;;;1.40;;
6485;SDS011;3276;48.490;9.222;2023-08-07T02:07:24;3.43;;;2.10;;
6485;SDS011;3276;48.490;9.222;2023-08-07T02:09:50;2.90;;;1.50;;
6485;SDS011;3276;48.490;9.222;2023-08-07T02:12:15;3.00;;;1.40;;
6485;SDS011;3276;48.490;9.222;2023-08-07T02:14:41;2.57;;;1.53;;
6485;SDS011;3276;48.490;9.222;2023-08-07T02:17:06;5.13;;;1.50;;
6485;SDS011;3276;48.490;9.222;2023-08-07T02:19:32;3.70;;;1.57;;
6485;SDS011;3276;48.490;9.222;2023-08-07T02:21:57;2.37;;;1.27;;
6485;SDS011;3276;48.490;9.222;2023-08-07T02:24:23;2.83;;;1.60;;
6485;SDS011;3276;48.490;9.222;2023-08-07T02:26:48;2.20;;;1.30;;
6485;SDS011;3276;48.490;9.222;2023-08-07T02:29:14;2.30;;;1.50;;
6485;SDS011;3276;48.490;9.222;2023-08-07T02:31:39;4.20;;;1.50;;
6485;SDS011;3276;48.490;9.222;2023-08-07T02:34:05;3.10;;;1.70;;
6485;SDS011;3276;48.490;9.222;2023-08-07T02:36:30;2.40;;;1.23;;
6485;SDS011;3276;48.490;9.222;2023-08-07T02:38:56;2.20;;;1.30;;
6485;SDS011;3276;48.490;9.222;2023-08-07T02:41:21;2.57;;;1.80;;
6485;SDS011;3276;48.490;9.222;2023-08-07T02:43:47;2.30;;;1.40;;
6485;SDS011;3276;48.490;9.222;2023-08-07T02:46:12;3.10;;;1.57;;
6485;SDS011;3276;48.490;9.222;2023-08-07T02:48:38;2.70;;;1.20;;
6485;SDS011;3276;48.490;9.222;2023-08-07T02:51:05;2.80;;;1.43;;
6485;SDS011;3276;48.490;9.222;2023-08-07T02:53:30;2.07;;;1.20;;
6485;SDS011;3276;48.490;9.222;2023-08-07T02:55:56;2.33;;;1.20;;
6485;SDS011;3276;48.490;9.222;2023-08-07T02:58:22;2.33;;;1.47;;
6485;SDS011;3276;48.490;9.222;2023-08-07T03:00:47;2.17;;;1.33;;
6485;SDS011;3276;48.490;9.222;2023-08-07T03:03:13;5.37;;;1.53;;
6485;SDS011;3276;48.490;9.222;2023-08-07T03:05:38;2.87;;;1.50;;
6485;SDS011;3276;48.490;9.222;2023-08-07T03:08:04;2.60;;;1.60;;
6485;SDS011;3276;48.490;9.222;2023-08-07T03:10:29;5.50;;;1.60;;
6485;SDS011;3276;48.490;9.222;2023-08-07T03:12:55;2.53;;;1.00;;
6485;SDS011;3276;48.490;9.222;2023-08-07T03:15:20;3.10;;;1.60;;
6485;SDS011;3276;48.490;9.222;2023-08-07T03:17:46;6.73;;;1.77;;
6485;SDS011;3276;48.490;9.222;2023-08-07T03:20:11;3.57;;;2.27;;
6485;SDS011;3276;48.490;9.222;2023-08-07T03:22:37;3.53;;;0.90;;
6485;SDS011;3276;48.490;9.222;2023-08-07T03:25:02;2.70;;;1.50;;
6485;SDS011;3276;48.490;9.222;2023-08-07T03:27:28;2.60;;;1.27;;
6485;SDS011;3276;48.490;9.222;2023-08-07T03:29:54;2.23;;;1.20;;
6485;SDS011;3276;48.490;9.222;2023-08-07T03:32:19;2.23;;;1.37;;
6485;SDS011;3276;48.490;9.222;2023-08-07T03:34:45;3.57;;;1.50;;
6485;SDS011;3276;48.490;9.222;2023-08-07T03:37:10;3.33;;;1.33;;
6485;SDS011;3276;48.490;9.222;2023-08-07T03:39:36;3.03;;;1.90;;
6485;SDS011;3276;48.490;9.222;2023-08-07T03:42:01;2.20;;;1.13;;
6485;SDS011;3276;48.490;9.222;2023-08-07T03:44:27;3.17;;;1.33;;
6485;SDS011;3276;48.490;9.222;2023-08-07T03:46:53;3.30;;;1.60;;
6485;SDS011;3276;48.490;9.222;2023-08-07T03:49:21;2.33;;;1.23;;
6485;SDS011;3276;48.490;9.222;2023-08-07T03:51:48;7.53;;;1.60;;
6485;SDS011;3276;48.490;9.222;2023-08-07T03:54:14;4.33;;;1.43;;
6485;SDS011;3276;48.490;9.222;2023-08-07T03:56:39;2.93;;;1.60;;
6485;SDS011;3276;48.490;9.222;2023-08-07T03:59:05;3.20;;;1.63;;
6485;SDS011;3276;48.490;9.222;2023-08-07T04:01:31;3.53;;;1.47;;
6485;SDS011;3276;48.490;9.222;2023-08-07T04:03:57;3.33;;;1.10;;
6485;SDS011;3276;48.490;9.222;2023-08-07T04:06:22;2.63;;;1.33;;
6485;SDS011;3276;48.490;9.222;2023-08-07T04:08:48;2.50;;;1.20;;
6485;SDS011;3276;48.490;9.222;2023-08-07T04:11:13;5.13;;;1.80;;
6485;SDS011;3276;48.490;9.222;2023-08-07T04:13:39;2.87;;;1.43;;
6485;SDS011;3276;48.490;9.222;2023-08-07T04:16:04;3.10;;;1.50;;
6485;SDS011;3276;48.490;9.222;2023-08-07T04:18:31;5.37;;;1.97;;
6485;SDS011;3276;48.490;9.222;2023-08-07T04:20:57;3.47;;;1.60;;
6485;SDS011;3276;48.490;9.222;2023-08-07T04:23:23;4.43;;;2.13;;
6485;SDS011;3276;48.490;9.222;2023-08-07T04:25:49;3.73;;;1.30;;
6485;SDS011;3276;48.490;9.222;2023-08-07T04:28:15;4.90;;;1.53;;
6485;SDS011;3276;48.490;9.222;2023-08-07T04:30:41;2.87;;;2.30;;
6485;SDS011;3276;48.490;9.222;2023-08-07T04:33:08;2.47;;;1.30;;
6485;SDS011;3276;48.490;9.222;2023-08-07T04:35:33;4.00;;;1.90;;
6485;SDS011;3276;48.490;9.222;2023-08-07T04:37:59;3.23;;;1.70;;
6485;SDS011;3276;48.490;9.222;2023-08-07T04:40:26;4.03;;;1.40;;
6485;SDS011;3276;48.490;9.222;2023-08-07T04:42:51;2.40;;;1.30;;
6485;SDS011;3276;48.490;9.222;2023-08-07T04:45:17;2.40;;;1.53;;
6485;SDS011;3276;48.490;9.222;2023-08-07T04:47:42;6.83;;;1.90;;
6485;SDS011;3276;48.490;9.222;2023-08-07T04:50:08;2.90;;;1.77;;
6485;SDS011;3276;48.490;9.222;2023-08-07T04:52:34;3.13;;;1.60;;
6485;SDS011;3276;48.490;9.222;2023-08-07T04:55:00;2.63;;;1.17;;
6485;SDS011;3276;48.490;9.222;2023-08-07T04:57:26;2.80;;;1.70;;
6485;SDS011;3276;48.490;9.222;2023-08-07T04:59:51;3.63;;;1.87;;
6485;SDS011;3276;48.490;9.222;2023-08-07T05:02:17;3.93;;;2.20;;
6485;SDS011;3276;48.490;9.222;2023-08-07T05:04:43;3.97;;;2.07;;
6485;SDS011;3276;48.490;9.222;2023-08-07T05:07:09;2.40;;;1.57;;
6485;SDS011;3276;48.490;9.222;2023-08-07T05:09:35;3.97;;;2.50;;
6485;SDS011;3276;48.490;9.222;2023-08-07T05:12:00;2.77;;;2.00;;
6485;SDS011;3276;48.490;9.222;2023-08-07T05:14:26;3.43;;;1.70;;
6485;SDS011;3276;48.490;9.222;2023-08-07T05:16:52;2.40;;;1.63;;
6485;SDS011;3276;48.490;9.222;2023-08-07T05:19:17;3.87;;;1.43;;
6485;SDS011;3276;48.490;9.222;2023-08-07T05:21:43;3.80;;;1.60;;
6485;SDS011;3276;48.490;9.222;2023-08-07T05:24:08;3.80;;;1.80;;
6485;SDS011;3276;48.490;9.222;2023-08-07T05:26:34;2.10;;;1.30;;
6485;SDS011;3276;48.490;9.222;2023-08-07T05:28:59;3.03;;;1.87;;
6485;SDS011;3276;48.490;9.222;2023-08-07T05:31:25;5.43;;;2.00;;
6485;SDS011;3276;48.490;9.222;2023-08-07T05:33:51;2.57;;;1.60;;
6485;SDS011;3276;48.490;9.222;2023-08-07T05:36:16;3.60;;;1.97;;
6485;SDS011;3276;48.490;9.222;2023-08-07T05:38:42;3.10;;;1.33;;
6485;SDS011;3276;48.490;9.222;2023-08-07T05:41:08;3.23;;;1.90;;
6485;SDS011;3276;48.490;9.222;2023-08-07T05:43:34;2.87;;;1.50;;
6485;SDS011;3276;48.490;9.222;2023-08-07T05:46:00;2.90;;;1.33;;
6485;SDS011;3276;48.490;9.222;2023-08-07T05:48:25;2.13;;;1.37;;
6485;SDS011;3276;48.490;9.222;2023-08-07T05:50:51;3.30;;;1.50;;
6485;SDS011;3276;48.490;9.222;2023-08-07T05:53:17;2.40;;;1.40;;
6485;SDS011;3276;48.490;9.222;2023-08-07T05:55:43;3.20;;;1.50;;
6485;SDS011;3276;48.490;9.222;2023-08-07T05:58:08;2.77;;;1.73;;
6485;SDS011;3276;48.490;9.222;2023-08-07T06:00:34;3.67;;;1.67;;
6485;SDS011;3276;48.490;9.222;2023-08-07T06:03:00;4.97;;;1.70;;
6485;SDS011;3276;48.490;9.222;2023-08-07T06:05:25;3.90;;;1.83;;
6485;SDS011;3276;48.490;9.222;2023-08-07T06:07:51;3.20;;;1.30;;
6485;SDS011;3276;48.490;9.222;2023-08-07T06:10:16;8.00;;;3.27;;
6485;SDS011;3276;48.490;9.222;2023-08-07T06:12:42;6.30;;;2.43;;
6485;SDS011;3276;48.490;9.222;2023-08-07T06:15:07;4.37;;;2.00;;
6485;SDS011;3276;48.490;9.222;2023-08-07T06:17:34;4.67;;;2.27;;
6485;SDS011;3276;48.490;9.222;2023-08-07T06:19:59;4.20;;;1.97;;
6485;SDS011;3276;48.490;9.222;2023-08-07T06:22:25;2.60;;;1.60;;
6485;SDS011;3276;48.490;9.222;2023-08-07T06:24:50;2.87;;;1.73;;
6485;SDS011;3276;48.490;9.222;2023-08-07T06:27:16;2.03;;;1.27;;
6485;SDS011;3276;48.490;9.222;2023-08-07T06:29:41;2.37;;;1.67;;
6485;SDS011;3276;48.490;9.222;2023-08-07T06:32:07;4.20;;;1.93;;
6485;SDS011;3276;48.490;9.222;2023-08-07T06:34:34;2.60;;;1.63;;
6485;SDS011;3276;48.490;9.222;2023-08-07T06:37:00;2.90;;;1.83;;
6485;SDS011;3276;48.490;9.222;2023-08-07T06:39:26;2.10;;;1.27;;
6485;SDS011;3276;48.490;9.222;2023-08-07T06:41:51;15.67;;;1.87;;
6485;SDS011;3276;48.490;9.222;2023-08-07T06:44:17;3.77;;;2.10;;
6485;SDS011;3276;48.490;9.222;2023-08-07T06:46:42;2.60;;;1.80;;
6485;SDS011;3276;48.490;9.222;2023-08-07T06:49:08;4.90;;;1.90;;
6485;SDS011;3276;48.490;9.222;2023-08-07T06:51:33;2.30;;;1.33;;
6485;SDS011;3276;48.490;9.222;2023-08-07T06:53:59;2.53;;;1.50;;
6485;SDS011;3276;48.490;9.222;2023-08-07T06:56:24;3.50;;;1.60;;
6485;SDS011;3276;48.490;9.222;2023-08-07T06:58:50;3.30;;;1.63;;
6485;SDS011;3276;48.490;9.222;2023-08-07T07:01:15;4.20;;;1.90;;
6485;SDS011;3276;48.490;9.222;2023-08-07T07:03:41;3.20;;;1.67;;
6485;SDS011;3276;48.490;9.222;2023-08-07T07:06:06;4.13;;;2.27;;
6485;SDS011;3276;48.490;9.222;2023-08-07T07:08:32;2.87;;;1.67;;
6485;SDS011;3276;48.490;9.222;2023-08-07T07:10:57;3.10;;;2.03;;
6485;SDS011;3276;48.490;9.222;2023-08-07T07:13:23;3.07;;;1.37;;
6485;SDS011;3276;48.490;9.222;2023-08-07T07:15:52;2.50;;;2.17;;
6485;SDS011;3276;48.490;9.222;2023-08-07T07:18:19;3.40;;;1.93;;
6485;SDS011;3276;48.490;9.222;2023-08-07T07:20:44;4.13;;;1.87;;
6485;SDS011;3276;48.490;9.222;2023-08-07T07:23:10;3.33;;;1.70;;
6485;SDS011;3276;48.490;9.222;2023-08-07T07:25:36;2.33;;;1.50;;
6485;SDS011;3276;48.490;9.222;2023-08-07T07:28:01;2.70;;;1.57;;
6485;SDS011;3276;48.490;9.222;2023-08-07T07:30:27;3.40;;;1.53;;
6485;SDS011;3276;48.490;9.222;2023-08-07T07:32:52;6.20;;;2.40;;
6485;SDS011;3276;48.490;9.222;2023-08-07T07:35:18;4.43;;;2.27;;
6485;SDS011;3276;48.490;9.222;2023-08-07T07:37:43;3.03;;;2.30;;
6485;SDS011;3276;48.490;9.222;2023-08-07T07:40:09;3.33;;;1.73;;
6485;SDS011;3276;48.490;9.222;2023-08-07T07:42:35;2.43;;;1.80;;
6485;SDS011;3276;48.490;9.222;2023-08-07T07:45:00;3.87;;;1.80;;
6485;SDS011;3276;48.490;9.222;2023-08-07T07:47:26;3.13;;;2.03;;
6485;SDS011;3276;48.490;9.222;2023-08-07T07:50:03;3.97;;;1.90;;
6485;SDS011;3276;48.490;9.222;2023-08-07T07:52:31;4.53;;;1.90;;
6485;SDS011;3276;48.490;9.222;2023-08-07T07:54:57;4.50;;;1.97;;
6485;SDS011;3276;48.490;9.222;2023-08-07T07:57:22;4.97;;;1.77;;
6485;SDS011;3276;48.490;9.222;2023-08-07T07:59:48;2.40;;;1.87;;
6485;SDS011;3276;48.490;9.222;2023-08-07T08:02:13;3.10;;;1.80;;
6485;SDS011;3276;48.490;9.222;2023-08-07T08:04:40;2.77;;;1.60;;
6485;SDS011;3276;48.490;9.222;2023-08-07T08:07:06;3.97;;;2.00;;
6485;SDS011;3276;48.490;9.222;2023-08-07T08:09:32;3.30;;;2.33;;
6485;SDS011;3276;48.490;9.222;2023-08-07T08:11:58;2.83;;;2.10;;
6485;SDS011;3276;48.490;9.222;2023-08-07T08:14:24;8.03;;;3.10;;
6485;SDS011;3276;48.490;9.222;2023-08-07T08:16:49;2.57;;;2.27;;
6485;SDS011;3276;48.490;9.222;2023-08-07T08:19:15;2.70;;;2.20;;
6485;SDS011;3276;48.490;9.222;2023-08-07T08:21:41;2.80;;;2.43;;
6485;SDS011;3276;48.490;9.222;2023-08-07T08:24:07;2.93;;;2.73;;
6485;SDS011;3276;48.490;9.222;2023-08-07T08:26:32;3.10;;;2.77;;
6485;SDS011;3276;48.490;9.222;2023-08-07T08:29:01;8.53;;;2.60;;
6485;SDS011;3276;48.490;9.222;2023-08-07T08:31:27;2.50;;;2.30;;
6485;SDS011;3276;48.490;9.222;2023-08-07T08:33:52;4.47;;;3.20;;
6485;SDS011;3276;48.490;9.222;2023-08-07T08:36:18;3.47;;;3.17;;
6485;SDS011;3276;48.490;9.222;2023-08-07T08:38:44;3.30;;;3.00;;
6485;SDS011;3276;48.490;9.222;2023-08-07T08:41:11;4.73;;;3.10;;
6485;SDS011;3276;48.490;9.222;2023-08-07T08:43:37;4.17;;;3.17;;
6485;SDS011;3276;48.490;9.222;2023-08-07T08:46:05;3.67;;;3.37;;
6485;SDS011;3276;48.490;9.222;2023-08-07T08:48:31;3.40;;;3.10;;
6485;SDS011;3276;48.490;9.222;2023-08-07T08:51:00;3.20;;;2.90;;
6485;SDS011;3276;48.490;9.222;2023-08-07T08:53:26;3.77;;;3.47;;
6485;SDS011;3276;48.490;9.222;2023-08-07T08:55:53;4.20;;;3.90;;
6485;SDS011;3276;48.490;9.222;2023-08-07T08:58:18;4.03;;;3.63;;
6485;SDS011;3276;48.490;9.222;2023-08-07T09:00:46;6.13;;;3.37;;
6485;SDS011;3276;48.490;9.222;2023-08-07T09:03:12;3.93;;;3.60;;
6485;SDS011;3276;48.490;9.222;2023-08-07T09:05:38;3.63;;;3.43;;
6485;SDS011;3276;48.490;9.222;2023-08-07T09:08:05;3.17;;;2.97;;
6485;SDS011;3276;48.490;9.222;2023-08-07T09:10:31;3.70;;;3.40;;
6485;SDS011;3276;48.490;9.222;2023-08-07T09:13:01;3.93;;;3.53;;
6485;SDS011;3276;48.490;9.222;2023-08-07T09:15:30;10.20;;;3.70;;
6485;SDS011;3276;48.490;9.222;2023-08-07T09:17:57;3.67;;;3.37;;
6485;SDS011;3276;48.490;9.222;2023-08-07T09:20:24;3.70;;;2.97;;
6485;SDS011;3276;48.490;9.222;2023-08-07T09:22:50;4.40;;;3.03;;
6485;SDS011;3276;48.490;9.222;2023-08-07T09:25:26;3.10;;;2.90;;
6485;SDS011;3276;48.490;9.222;2023-08-07T09:27:54;3.77;;;2.73;;
6485;SDS011;3276;48.490;9.222;2023-08-07T09:30:21;2.30;;;2.10;;
6485;SDS011;3276;48.490;9.222;2023-08-07T09:32:52;2.97;;;2.60;;
6485;SDS011;3276;48.490;9.222;2023-08-07T09:35:20;3.67;;;2.90;;
6485;SDS011;3276;48.490;9.222;2023-08-07T09:37:46;3.07;;;2.23;;
6485;SDS011;3276;48.490;9.222;2023-08-07T09:40:11;2.80;;;2.60;;
6485;SDS011;3276;48.490;9.222;2023-08-07T09:42:40;3.80;;;2.90;;
6485;SDS011;3276;48.490;9.222;2023-08-07T09:45:18;2.67;;;2.47;;
6485;SDS011;3276;48.490;9.222;2023-08-07T09:48:00;3.37;;;3.07;;
6485;SDS011;3276;48.490;9.222;2023-08-07T09:50:27;3.10;;;2.80;;
6485;SDS011;3276;48.490;9.222;2023-08-07T09:52:54;4.20;;;3.00;;
6485;SDS011;3276;48.490;9.222;2023-08-07T09:55:20;2.70;;;2.50;;
6485;SDS011;3276;48.490;9.222;2023-08-07T09:57:46;2.67;;;2.47;;
6485;SDS011;3276;48.490;9.222;2023-08-07T10:00:13;3.30;;;3.00;;
6485;SDS011;3276;48.490;9.222;2023-08-07T10:02:40;3.00;;;2.80;;
6485;SDS011;3276;48.490;9.222;2023-08-07T10:05:09;3.60;;;2.70;;
6485;SDS011;3276;48.490;9.222;2023-08-07T10:07:37;3.80;;;3.50;;
6485;SDS011;3276;48.490;9.222;2023-08-07T10:10:03;2.90;;;2.70;;
6485;SDS011;3276;48.490;9.222;2023-08-07T10:12:29;9.87;;;2.87;;
6485;SDS011;3276;48.490;9.222;2023-08-07T10:14:56;2.90;;;2.70;;
6485;SDS011;3276;48.490;9.222;2023-08-07T10:17:22;2.87;;;2.60;;
6485;SDS011;3276;48.490;9.222;2023-08-07T10:19:48;2.93;;;2.73;;
6485;SDS011;3276;48.490;9.222;2023-08-07T10:22:15;3.20;;;3.00;;
6485;SDS011;3276;48.490;9.222;2023-08-07T10:24:44;3.00;;;2.80;;
6485;SDS011;3276;48.490;9.222;2023-08-07T10:27:15;2.67;;;2.47;;
6485;SDS011;3276;48.490;9.222;2023-08-07T10:29:47;4.53;;;2.97;;
6485;SDS011;3276;48.490;9.222;2023-08-07T10:32:15;2.70;;;2.50;;
6485;SDS011;3276;48.490;9.222;2023-08-07T10:34:47;3.53;;;3.23;;
6485;SDS011;3276;48.490;9.222;2023-08-07T10:40:05;2.93;;;2.73;;
6485;SDS011;3276;48.490;9.222;2023-08-07T10:42:51;2.50;;;2.30;;
6485;SDS011;3276;48.490;9.222;2023-08-07T10:45:20;3.17;;;2.97;;
6485;SDS011;3276;48.490;9.222;2023-08-07T10:50:50;3.73;;;3.00;;
6485;SDS011;3276;48.490;9.222;2023-08-07T10:53:19;3.93;;;3.13;;
6485;SDS011;3276;48.490;9.222;2023-08-07T10:55:54;3.00;;;2.80;;
6485;SDS011;3276;48.490;9.222;2023-08-07T10:58:26;3.27;;;3.07;;
6485;SDS011;3276;48.490;9.222;2023-08-07T11:03:56;3.60;;;3.30;;
6485;SDS011;3276;48.490;9.222;2023-08-07T11:06:26;3.23;;;2.90;;
6485;SDS011;3276;48.490;9.222;2023-08-07T11:08:56;3.00;;;2.80;;
6485;SDS011;3276;48.490;9.222;2023-08-07T11:11:21;3.03;;;2.73;;
6485;SDS011;3276;48.490;9.222;2023-08-07T11:13:47;3.23;;;2.93;;
6485;SDS011;3276;48.490;9.222;2023-08-07T11:16:12;3.43;;;2.90;;
6485;SDS011;3276;48.490;9.222;2023-08-07T11:18:38;3.27;;;2.97;;
6485;SDS011;3276;48.490;9.222;2023-08-07T11:21:07;3.90;;;3.37;;
6485;SDS011;3276;48.490;9.222;2023-08-07T11:23:35;4.73;;;2.80;;
6485;SDS011;3276;48.490;9.222;2023-08-07T11:26:01;2.90;;;2.67;;
6485;SDS011;3276;48.490;9.222;2023-08-07T11:28:28;3.20;;;2.90;;
6485;SDS011;3276;48.490;9.222;2023-08-07T11:30:53;3.23;;;2.93;;
6485;SDS011;3276;48.490;9.222;2023-08-07T11:33:21;3.17;;;2.97;;
6485;SDS011;3276;48.490;9.222;2023-08-07T11:35:48;3.10;;;2.90;;
6485;SDS011;3276;48.490;9.222;2023-08-07T11:41:00;2.40;;;2.20;;
6485;SDS011;3276;48.490;9.222;2023-08-07T11:43:28;3.53;;;3.13;;
6485;SDS011;3276;48.490;9.222;2023-08-07T11:45:55;5.90;;;2.60;;
6485;SDS011;3276;48.490;9.222;2023-08-07T11:48:25;2.70;;;2.50;;
6485;SDS011;3276;48.490;9.222;2023-08-07T11:50:52;3.03;;;2.83;;
6485;SDS011;3276;48.490;9.222;2023-08-07T11:53:19;3.03;;;2.73;;
6485;SDS011;3276;48.490;9.222;2023-08-07T11:55:51;2.90;;;2.70;;
6485;SDS011;3276;48.490;9.222;2023-08-07T11:58:21;2.67;;;2.43;;
6485;SDS011;3276;48.490;9.222;2023-08-07T12:00:48;3.00;;;2.80;;
6485;SDS011;3276;48.490;9.222;2023-08-07T12:03:24;3.03;;;2.70;;
6485;SDS011;3276;48.490;9.222;2023-08-07T12:05:53;5.43;;;3.40;;
6485;SDS011;3276;48.490;9.222;2023-08-07T12:08:19;2.83;;;2.63;;
6485;SDS011;3276;48.490;9.222;2023-08-07T12:10:48;3.17;;;2.87;;
6485;SDS011;3276;48.490;9.222;2023-08-07T12:13:20;4.83;;;2.80;;
6485;SDS011;3276;48.490;9.222;2023-08-07T12:15:50;3.13;;;2.90;;
6485;SDS011;3276;48.490;9.222;2023-08-07T12:18:19;2.40;;;2.20;;
6485;SDS011;3276;48.490;9.222;2023-08-07T12:20:45;3.30;;;3.00;;
6485;SDS011;3276;48.490;9.222;2023-08-07T12:23:14;3.50;;;2.27;;
6485;SDS011;3276;48.490;9.222;2023-08-07T12:25:43;3.60;;;2.60;;
6485;SDS011;3276;48.490;9.222;2023-08-07T12:28:09;2.90;;;2.53;;
6485;SDS011;3276;48.490;9.222;2023-08-07T12:30:35;3.70;;;2.37;;
6485;SDS011;3276;48.490;9.222;2023-08-07T12:33:02;2.60;;;2.30;;
6485;SDS011;3276;48.490;9.222;2023-08-07T12:35:29;3.20;;;2.43;;
6485;SDS011;3276;48.490;9.222;2023-08-07T12:37:55;3.67;;;2.43;;
6485;SDS011;3276;48.490;9.222;2023-08-07T12:40:21;2.93;;;2.30;;
6485;SDS011;3276;48.490;9.222;2023-08-07T12:42:48;2.83;;;2.53;;
6485;SDS011;3276;48.490;9.222;2023-08-07T12:45:16;3.10;;;2.40;;
6485;SDS011;3276;48.490;9.222;2023-08-07T12:47:44;2.13;;;1.90;;
6485;SDS011;3276;48.490;9.222;2023-08-07T12:50:10;2.90;;;2.50;;
6485;SDS011;3276;48.490;9.222;2023-08-07T12:52:35;2.47;;;2.23;;
6485;SDS011;3276;48.490;9.222;2023-08-07T12:55:01;3.80;;;2.20;;
6485;SDS011;3276;48.490;9.222;2023-08-07T12:57:27;3.00;;;2.80;;
6485;SDS011;3276;48.490;9.222;2023-08-07T12:59:52;2.60;;;2.40;;
6485;SDS011;3276;48.490;9.222;2023-08-07T13:02:18;2.63;;;2.43;;
6485;SDS011;3276;48.490;9.222;2023-08-07T13:04:43;3.37;;;2.80;;
6485;SDS011;3276;48.490;9.222;2023-08-07T13:07:09;3.10;;;2.63;;
6485;SDS011;3276;48.490;9.222;2023-08-07T13:09:34;5.30;;;3.30;;
6485;SDS011;3276;48.490;9.222;2023-08-07T13:12:00;2.97;;;2.73;;
6485;SDS011;3276;48.490;9.222;2023-08-07T13:14:25;2.30;;;2.10;;
6485;SDS011;3276;48.490;9.222;2023-08-07T13:16:51;2.67;;;2.37;;
6485;SDS011;3276;48.490;9.222;2023-08-07T13:19:17;4.13;;;2.20;;
6485;SDS011;3276;48.490;9.222;2023-08-07T13:21:42;3.87;;;2.27;;
6485;SDS011;3276;48.490;9.222;2023-08-07T13:24:08;3.00;;;2.20;;
6485;SDS011;3276;48.490;9.222;2023-08-07T13:26:34;2.90;;;2.60;;
6485;SDS011;3276;48.490;9.222;2023-08-07T13:28:59;3.00;;;2.70;;
6485;SDS011;3276;48.490;9.222;2023-08-07T13:31:25;2.50;;;2.30;;
6485;SDS011;3276;48.490;9.222;2023-08-07T13:33:50;2.60;;;2.40;;
6485;SDS011;3276;48.490;9.222;2023-08-07T13:36:16;2.97;;;2.70;;
6485;SDS011;3276;48.490;9.222;2023-08-07T13:38:41;3.10;;;2.80;;
6485;SDS011;3276;48.490;9.222;2023-08-07T13:41:07;3.30;;;3.00;;
6485;SDS011;3276;48.490;9.222;2023-08-07T13:43:33;2.47;;;2.27;;
6485;SDS011;3276;48.490;9.222;2023-08-07T13:45:58;2.87;;;2.60;;
6485;SDS011;3276;48.490;9.222;2023-08-07T13:48:24;3.10;;;2.80;;
6485;SDS011;3276;48.490;9.222;2023-08-07T13:50:51;4.77;;;3.43;;
6485;SDS011;3276;48.490;9.222;2023-08-07T13:53:18;2.50;;;2.30;;
6485;SDS011;3276;48.490;9.222;2023-08-07T13:55:44;2.70;;;2.47;;
6485;SDS011;3276;48.490;9.222;2023-08-07T13:58:11;3.20;;;2.83;;
6485;SDS011;3276;48.490;9.222;2023-08-07T14:00:40;2.50;;;2.30;;
6485;SDS011;3276;48.490;9.222;2023-08-07T14:03:06;2.17;;;1.97;;
6485;SDS011;3276;48.490;9.222;2023-08-07T14:05:33;2.30;;;2.10;;
6485;SDS011;3276;48.490;9.222;2023-08-07T14:07:59;3.20;;;2.90;;
6485;SDS011;3276;48.490;9.222;2023-08-07T14:10:24;3.23;;;2.53;;
6485;SDS011;3276;48.490;9.222;2023-08-07T14:12:50;2.97;;;2.77;;
6485;SDS011;3276;48.490;9.222;2023-08-07T14:15:16;3.10;;;2.90;;
6485;SDS011;3276;48.490;9.222;2023-08-07T14:17:41;3.20;;;2.90;;
6485;SDS011;3276;48.490;9.222;2023-08-07T14:20:07;2.97;;;2.70;;
6485;SDS011;3276;48.490;9.222;2023-08-07T14:22:33;3.87;;;3.17;;
6485;SDS011;3276;48.490;9.222;2023-08-07T14:25:01;3.30;;;3.00;;
6485;SDS011;3276;48.490;9.222;2023-08-07T14:27:28;3.30;;;3.00;;
6485;SDS011;3276;48.490;9.222;2023-08-07T14:29:53;3.80;;;3.50;;
6485;SDS011;3276;48.490;9.222;2023-08-07T14:32:19;6.80;;;4.30;;
6485;SDS011;3276;48.490;9.222;2023-08-07T14:34:44;3.90;;;3.17;;
6485;SDS011;3276;48.490;9.222;2023-08-07T14:37:12;2.43;;;2.20;;
6485;SDS011;3276;48.490;9.222;2023-08-07T14:39:38;2.63;;;2.43;;
6485;SDS011;3276;48.490;9.222;2023-08-07T14:42:04;3.23;;;3.03;;
6485;SDS011;3276;48.490;9.222;2023-08-07T14:44:29;3.37;;;3.07;;
6485;SDS011;3276;48.490;9.222;2023-08-07T14:46:55;5.77;;;3.07;;
6485;SDS011;3276;48.490;9.222;2023-08-07T14:49:20;3.20;;;3.00;;
6485;SDS011;3276;48.490;9.222;2023-08-07T14:51:49;3.60;;;2.90;;
6485;SDS011;3276;48.490;9.222;2023-08-07T14:54:15;3.30;;;3.00;;
6485;SDS011;3276;48.490;9.222;2023-08-07T14:56:40;4.20;;;2.83;;
6485;SDS011;3276;48.490;9.222;2023-08-07T14:59:06;2.80;;;2.60;;
6485;SDS011;3276;48.490;9.222;2023-08-07T15:01:31;3.30;;;2.97;;
6485;SDS011;3276;48.490;9.222;2023-08-07T15:03:57;3.30;;;3.00;;
6485;SDS011;3276;48.490;9.222;2023-08-07T15:06:23;5.73;;;3.17;;
6485;SDS011;3276;48.490;9.222;2023-08-07T15:08:48;3.37;;;3.07;;
6485;SDS011;3276;48.490;9.222;2023-08-07T15:11:14;3.23;;;2.93;;
6485;SDS011;3276;48.490;9.222;2023-08-07T15:13:40;2.80;;;2.60;;
6485;SDS011;3276;48.490;9.222;2023-08-07T15:16:05;2.97;;;2.77;;
6485;SDS011;3276;48.490;9.222;2023-08-07T15:18:31;3.70;;;2.80;;
6485;SDS011;3276;48.490;9.222;2023-08-07T15:20:58;3.10;;;2.87;;
6485;SDS011;3276;48.490;9.222;2023-08-07T15:23:25;2.83;;;2.53;;
6485;SDS011;3276;48.490;9.222;2023-08-07T15:25:51;3.27;;;2.97;;
6485;SDS011;3276;48.490;9.222;2023-08-07T15:28:17;2.23;;;1.90;;
6485;SDS011;3276;48.490;9.222;2023-08-07T15:30:49;3.43;;;2.63;;